Cazenovia, Illinois
Current Conditions -  °F | °C
As of 5:15 AM on Sunday 23 Nov 2014 (Local Time) from KC75 Reporting Station
Overcast Overcast  
Wind Chill: 46°   Ceiling: 4700
Heat Index: 49°   Visibility: 10mi
Dew Point: 42°   Wind: 9mph
Humidity: 76%   Direction: 180°S
Pressure: 29.72"   Gusts: NA
Location:  40.8772°N, 89.3866°W
Report Text: KC75 231115Z AUTO 18008KT 10SM BKN047 BKN055 OVC090 10/06 A2972 RMK AO2 T00970056
Loading
Personal Weather Stations






























Interactive Weather Map New forecast layout! Learn more

10-Day Weather Forecast

Advertisements
Track Severe Weather on mobile